Time;durP1;ratioP1;P1;durP2;ratioP2;P2;SDS_P1;SDS_P2;PMS_P1;PMS_P2;Temp;Humidity;BMP_temperature;BMP_pressure;BME280_temperature;BME280_humidity;BME280_pressure;Samples;Min_cycle;Max_cycle;Signal;HPM_P1;HPM_P2
2024/02/12 00:01:45;;;;;;;0.70;0.70;;;;;;;;;;6247900;23;20189;-79
2024/02/12 00:04:14;;;;;;;0.87;0.80;;;;;;;;;;6246862;23;20160;-79
2024/02/12 00:06:50;;;;;;;0.80;0.80;;;;;;;;;;6246867;23;20156;-79
2024/02/12 00:09:19;;;;;;;0.80;0.60;;;;;;;;;;6246346;23;20195;-80
2024/02/12 00:11:50;;;;;;;1.00;0.70;;;;;;;;;;6219470;23;20172;-79
2024/02/12 00:14:19;;;;;;;0.70;0.70;;;;;;;;;;6220755;23;20280;-79
2024/02/12 00:16:47;;;;;;;0.97;0.60;;;;;;;;;;6195689;23;20169;-80
2024/02/12 00:19:17;;;;;;;1.23;0.70;;;;;;;;;;6244864;23;20223;-80
2024/02/12 00:21:48;;;;;;;1.20;0.73;;;;;;;;;;6196367;23;20662;-79
2024/02/12 00:24:18;;;;;;;0.80;0.80;;;;;;;;;;6195646;23;20169;-82
2024/02/12 00:26:50;;;;;;;0.70;0.70;;;;;;;;;;6220262;23;20268;-79
2024/02/12 00:29:19;;;;;;;0.80;0.80;;;;;;;;;;6246723;23;20161;-79
2024/02/12 00:31:48;;;;;;;0.90;0.90;;;;;;;;;;6246802;23;20180;-80
2024/02/12 00:34:23;;;;;;;0.70;0.70;;;;;;;;;;6220547;23;20632;-79
2024/02/12 00:36:52;;;;;;;0.90;0.67;;;;;;;;;;6219844;23;20176;-79
2024/02/12 00:39:19;;;;;;;0.70;0.70;;;;;;;;;;6246503;23;20163;-78
2024/02/12 00:41:52;;;;;;;0.80;0.80;;;;;;;;;;6219457;23;20251;-79
2024/02/12 00:44:22;;;;;;;0.80;0.80;;;;;;;;;;6246478;23;20188;-79
2024/02/12 00:46:53;;;;;;;0.83;0.83;;;;;;;;;;6219511;23;20612;-79
2024/02/12 00:49:21;;;;;;;0.67;0.67;;;;;;;;;;6220184;23;20149;-79
2024/02/12 00:52:07;;;;;;;0.77;0.70;;;;;;;;;;6218261;23;20194;-79
2024/02/12 00:54:39;;;;;;;0.60;0.60;;;;;;;;;;6219699;23;20165;-80
2024/02/12 00:57:25;;;;;;;1.80;0.93;;;;;;;;;;6246692;23;20150;-79
2024/02/12 00:59:54;;;;;;;1.33;1.07;;;;;;;;;;6195066;23;20507;-78
2024/02/12 01:02:25;;;;;;;1.70;0.93;;;;;;;;;;6219624;23;20172;-78
2024/02/12 01:04:55;;;;;;;0.80;0.80;;;;;;;;;;6219610;23;20173;-79
2024/02/12 01:07:25;;;;;;;0.83;0.73;;;;;;;;;;6246120;23;20630;-79
2024/02/12 01:09:54;;;;;;;1.73;0.77;;;;;;;;;;6245847;23;20211;-79
2024/02/12 01:12:21;;;;;;;1.17;0.77;;;;;;;;;;6219394;23;20215;-80
2024/02/12 01:14:48;;;;;;;1.33;1.00;;;;;;;;;;6246029;23;20157;-79
2024/02/12 01:17:15;;;;;;;0.90;0.80;;;;;;;;;;6219380;23;20157;-78
2024/02/12 01:19:44;;;;;;;1.03;0.83;;;;;;;;;;6245759;23;20168;-79
2024/02/12 01:22:11;;;;;;;1.17;0.80;;;;;;;;;;6219377;23;20161;-79
2024/02/12 01:24:43;;;;;;;0.63;0.63;;;;;;;;;;6194600;23;20200;-79
2024/02/12 01:27:11;;;;;;;0.93;0.73;;;;;;;;;;6245651;23;20236;-79
2024/02/12 01:29:42;;;;;;;0.87;0.80;;;;;;;;;;6219650;23;20153;-81
2024/02/12 01:32:10;;;;;;;0.83;0.83;;;;;;;;;;6245838;23;20240;-79
2024/02/12 01:34:37;;;;;;;0.80;0.80;;;;;;;;;;6245612;23;20213;-79
2024/02/12 01:37:04;;;;;;;1.10;1.00;;;;;;;;;;6245728;23;20610;-78
2024/02/12 01:39:32;;;;;;;1.10;1.00;;;;;;;;;;6245504;23;20670;-79
2024/02/12 01:42:13;;;;;;;0.90;0.90;;;;;;;;;;6245469;23;20169;-79
2024/02/12 01:44:59;;;;;;;0.80;0.80;;;;;;;;;;6245518;23;20596;-81
2024/02/12 01:47:26;;;;;;;0.70;0.70;;;;;;;;;;6219189;23;20173;-79
2024/02/12 01:49:57;;;;;;;0.93;0.87;;;;;;;;;;6246096;23;20211;-79
2024/02/12 01:52:29;;;;;;;0.97;0.90;;;;;;;;;;6219408;23;20208;-78
2024/02/12 01:54:57;;;;;;;1.20;0.87;;;;;;;;;;6218954;23;20192;-78
2024/02/12 01:57:24;;;;;;;1.43;1.00;;;;;;;;;;6219838;23;20169;-78
2024/02/12 01:59:59;;;;;;;1.17;1.07;;;;;;;;;;6247421;23;20215;-78
2024/02/12 02:02:29;;;;;;;2.23;1.10;;;;;;;;;;6247751;23;20592;-79
2024/02/12 02:05:00;;;;;;;1.23;1.10;;;;;;;;;;6221388;23;20173;-79
2024/02/12 02:07:31;;;;;;;1.10;1.00;;;;;;;;;;6248273;23;20151;-78
2024/02/12 02:09:57;;;;;;;0.90;0.90;;;;;;;;;;6247995;23;20165;-79
2024/02/12 02:12:27;;;;;;;1.53;1.00;;;;;;;;;;6246999;23;20244;-78
2024/02/12 02:14:57;;;;;;;1.07;0.90;;;;;;;;;;6247746;23;20148;-78
2024/02/12 02:17:29;;;;;;;1.33;1.00;;;;;;;;;;6247955;23;20173;-79
2024/02/12 02:20:07;;;;;;;0.90;0.90;;;;;;;;;;6197419;23;20223;-79
2024/02/12 02:22:34;;;;;;;0.80;0.80;;;;;;;;;;6247817;23;20155;-80
2024/02/12 02:25:07;;;;;;;0.90;0.90;;;;;;;;;;6247998;23;20166;-79
2024/02/12 02:27:51;;;;;;;1.13;1.00;;;;;;;;;;6220980;23;20168;-79
2024/02/12 02:30:19;;;;;;;1.10;1.00;;;;;;;;;;6247861;23;20161;-79
2024/02/12 02:32:47;;;;;;;1.00;0.93;;;;;;;;;;6220802;23;20199;-79
2024/02/12 02:35:14;;;;;;;1.10;0.90;;;;;;;;;;6221195;23;20600;-80
2024/02/12 02:37:42;;;;;;;1.43;0.80;;;;;;;;;;6248260;23;20165;-79
2024/02/12 02:40:09;;;;;;;0.80;0.80;;;;;;;;;;6247921;23;20172;-79
2024/02/12 02:42:38;;;;;;;1.10;1.00;;;;;;;;;;6247999;23;20236;-80
2024/02/12 02:45:07;;;;;;;1.20;1.10;;;;;;;;;;6247670;22;20166;-78
2024/02/12 02:47:37;;;;;;;0.90;0.87;;;;;;;;;;6220956;23;20251;-79
2024/02/12 02:50:10;;;;;;;0.70;0.70;;;;;;;;;;6223024;23;20142;-80
2024/02/12 02:52:39;;;;;;;1.23;1.10;;;;;;;;;;6247796;23;20184;-80
2024/02/12 02:55:07;;;;;;;1.20;0.93;;;;;;;;;;6247383;23;20162;-79
2024/02/12 02:57:34;;;;;;;0.93;0.93;;;;;;;;;;6247658;23;20188;-79
2024/02/12 03:00:03;;;;;;;1.07;0.97;;;;;;;;;;6247047;23;20168;-80
2024/02/12 03:02:30;;;;;;;1.30;0.80;;;;;;;;;;6216878;23;20150;-79
2024/02/12 03:04:58;;;;;;;1.07;1.07;;;;;;;;;;6217270;23;20615;-80
2024/02/12 03:07:27;;;;;;;1.13;0.87;;;;;;;;;;6190784;23;20191;-80
2024/02/12 03:09:54;;;;;;;1.37;1.27;;;;;;;;;;6190364;23;20174;-80
2024/02/12 03:12:30;;;;;;;1.20;1.00;;;;;;;;;;6192896;23;20142;-80
2024/02/12 03:15:00;;;;;;;0.90;0.90;;;;;;;;;;6167009;23;20213;-80
2024/02/12 03:17:28;;;;;;;0.80;0.80;;;;;;;;;;6190713;23;20177;-80
2024/02/12 03:19:56;;;;;;;0.90;0.90;;;;;;;;;;6165943;23;20199;-80
2024/02/12 03:22:23;;;;;;;1.37;1.00;;;;;;;;;;6217355;23;20170;-80
2024/02/12 03:24:56;;;;;;;1.00;0.90;;;;;;;;;;6191569;23;20158;-80
2024/02/12 03:27:23;;;;;;;1.17;0.83;;;;;;;;;;6191677;23;20181;-80
2024/02/12 03:29:54;;;;;;;1.50;1.00;;;;;;;;;;6190970;23;20189;-80
2024/02/12 03:32:26;;;;;;;0.87;0.87;;;;;;;;;;6218241;23;20181;-80
2024/02/12 03:35:09;;;;;;;1.10;0.90;;;;;;;;;;6215560;23;20232;-80
2024/02/12 03:37:37;;;;;;;1.20;1.07;;;;;;;;;;6191983;23;20597;-80
2024/02/12 03:40:10;;;;;;;1.00;0.90;;;;;;;;;;6167322;23;20652;-80
2024/02/12 03:42:42;;;;;;;1.20;1.10;;;;;;;;;;6218507;23;20166;-81
2024/02/12 03:45:19;;;;;;;1.07;0.97;;;;;;;;;;6193319;23;20153;-80
2024/02/12 03:47:51;;;;;;;1.10;0.90;;;;;;;;;;6193002;23;20170;-80
2024/02/12 04:01:35;;;;;;;1.20;1.10;;;;;;;;;;6236763;23;20247;-80
2024/02/12 04:04:06;;;;;;;0.80;0.80;;;;;;;;;;6247706;23;20146;-80
2024/02/12 04:06:38;;;;;;;1.13;0.87;;;;;;;;;;6222614;23;20165;-80
2024/02/12 04:09:09;;;;;;;1.20;1.00;;;;;;;;;;6196696;23;20630;-80
2024/02/12 04:11:39;;;;;;;1.10;0.80;;;;;;;;;;6220750;23;20189;-80
2024/02/12 04:14:11;;;;;;;1.03;0.90;;;;;;;;;;6221379;23;20185;-80
2024/02/12 04:16:39;;;;;;;1.87;0.97;;;;;;;;;;6247725;23;20203;-80
2024/02/12 04:19:10;;;;;;;1.63;1.00;;;;;;;;;;6247180;23;20552;-80
2024/02/12 04:21:42;;;;;;;1.33;1.13;;;;;;;;;;6247320;23;20145;-80
2024/02/12 04:24:14;;;;;;;1.47;1.10;;;;;;;;;;6247632;23;20181;-80
2024/02/12 04:26:44;;;;;;;1.57;1.07;;;;;;;;;;6247945;23;20277;-80
2024/02/12 04:29:45;;;;;;;1.40;1.10;;;;;;;;;;6226229;23;20698;-80
2024/02/12 04:32:12;;;;;;;1.27;1.00;;;;;;;;;;6246791;23;20181;-80
2024/02/12 04:34:41;;;;;;;1.57;1.00;;;;;;;;;;6247093;23;20636;-80
2024/02/12 04:37:09;;;;;;;1.23;1.00;;;;;;;;;;6247341;23;20157;-80
2024/02/12 04:39:37;;;;;;;1.40;1.10;;;;;;;;;;6219529;23;20169;-79
2024/02/12 04:42:06;;;;;;;1.23;1.13;;;;;;;;;;6246275;23;20184;-79
2024/02/12 04:44:35;;;;;;;1.20;1.10;;;;;;;;;;6219377;23;20619;-79
2024/02/12 04:47:09;;;;;;;0.90;0.90;;;;;;;;;;6246525;23;20148;-79
2024/02/12 04:49:39;;;;;;;0.97;0.87;;;;;;;;;;6246178;23;20146;-80
2024/02/12 04:52:07;;;;;;;1.10;1.00;;;;;;;;;;6247055;23;20168;-79
2024/02/12 04:54:39;;;;;;;1.00;0.90;;;;;;;;;;6221745;23;20272;-80
2024/02/12 04:57:10;;;;;;;0.87;0.80;;;;;;;;;;6246809;23;20168;-80
2024/02/12 04:59:40;;;;;;;1.37;1.00;;;;;;;;;;6247116;23;20161;-79
2024/02/12 05:02:10;;;;;;;1.10;1.00;;;;;;;;;;6220424;23;20200;-79
2024/02/12 05:04:44;;;;;;;1.50;1.00;;;;;;;;;;6216576;23;20224;-80
2024/02/12 05:07:11;;;;;;;1.40;1.00;;;;;;;;;;6218581;23;20149;-81
2024/02/12 05:09:39;;;;;;;0.80;0.80;;;;;;;;;;6224855;23;20242;-81
2024/02/12 05:12:15;;;;;;;0.80;0.80;;;;;;;;;;6224948;23;20172;-80
2024/02/12 05:14:42;;;;;;;0.80;0.70;;;;;;;;;;6225074;23;20211;-80
2024/02/12 05:17:11;;;;;;;0.70;0.70;;;;;;;;;;6225101;23;20184;-80
2024/02/12 05:22:54;;;;;;;0.70;0.70;;;;;;;;;;6217984;23;20256;-80
2024/02/12 05:25:25;;;;;;;1.47;0.83;;;;;;;;;;6225110;23;20242;-80
2024/02/12 05:27:55;;;;;;;0.73;0.70;;;;;;;;;;6225874;23;20184;-80
2024/02/12 05:30:26;;;;;;;0.67;0.67;;;;;;;;;;6199194;23;20189;-81
2024/02/12 05:32:55;;;;;;;0.70;0.70;;;;;;;;;;6226450;23;20663;-80
2024/02/12 05:35:24;;;;;;;0.77;0.77;;;;;;;;;;6201148;23;20273;-80
2024/02/12 05:37:51;;;;;;;0.87;0.83;;;;;;;;;;6201557;23;20229;-81
2024/02/12 05:40:20;;;;;;;1.10;1.00;;;;;;;;;;6228459;23;20605;-81
2024/02/12 05:42:49;;;;;;;1.43;0.90;;;;;;;;;;6227838;23;20142;-81
2024/02/12 05:45:19;;;;;;;1.53;1.00;;;;;;;;;;6227543;23;20237;-81
2024/02/12 05:47:49;;;;;;;0.97;0.80;;;;;;;;;;6227639;23;20154;-80
2024/02/12 05:50:17;;;;;;;0.80;0.70;;;;;;;;;;6227525;23;20158;-80
2024/02/12 05:52:44;;;;;;;1.00;0.90;;;;;;;;;;6227239;23;20209;-80
2024/02/12 05:55:13;;;;;;;0.87;0.80;;;;;;;;;;6225312;23;20193;-80
2024/02/12 05:57:50;;;;;;;0.83;0.83;;;;;;;;;;6226248;23;20165;-80
2024/02/12 06:00:17;;;;;;;0.77;0.77;;;;;;;;;;6205524;23;20236;-80
2024/02/12 06:02:48;;;;;;;0.77;0.63;;;;;;;;;;6257697;23;20648;-80
2024/02/12 06:05:17;;;;;;;1.03;0.90;;;;;;;;;;6257377;23;20160;-80
2024/02/12 06:07:46;;;;;;;1.00;0.67;;;;;;;;;;6258623;23;20161;-80
2024/02/12 06:10:15;;;;;;;0.60;0.60;;;;;;;;;;6230461;23;20165;-80
2024/02/12 06:12:49;;;;;;;1.00;0.80;;;;;;;;;;6257244;23;20207;-81
2024/02/12 06:15:19;;;;;;;0.60;0.60;;;;;;;;;;6257106;23;20173;-80
2024/02/12 06:17:48;;;;;;;0.60;0.60;;;;;;;;;;6257904;23;20220;-80
2024/02/12 06:20:15;;;;;;;1.13;0.77;;;;;;;;;;6257093;23;20161;-80
2024/02/12 06:22:49;;;;;;;0.70;0.70;;;;;;;;;;6256429;23;20161;-80
2024/02/12 06:25:31;;;;;;;0.70;0.70;;;;;;;;;;6231187;23;20223;-80
2024/02/12 06:28:09;;;;;;;1.07;0.80;;;;;;;;;;6256633;23;20149;-80
2024/02/12 06:30:50;;;;;;;1.03;0.60;;;;;;;;;;6252776;23;20267;-80
2024/02/12 06:33:17;;;;;;;0.80;0.70;;;;;;;;;;6256591;23;20185;-80
2024/02/12 06:35:46;;;;;;;0.80;0.67;;;;;;;;;;6256787;23;20177;-80
2024/02/12 06:38:34;;;;;;;0.80;0.80;;;;;;;;;;6229339;23;20165;-80
2024/02/12 06:41:01;;;;;;;0.70;0.70;;;;;;;;;;6257154;23;20161;-80
2024/02/12 06:43:31;;;;;;;0.73;0.73;;;;;;;;;;6256917;23;20195;-82
2024/02/12 06:46:07;;;;;;;1.73;0.90;;;;;;;;;;6258039;23;20482;-81
2024/02/12 06:48:39;;;;;;;1.37;0.60;;;;;;;;;;6207771;23;20199;-82
2024/02/12 06:51:18;;;;;;;2.00;0.60;;;;;;;;;;6258687;23;20198;-82
2024/02/12 06:53:48;;;;;;;0.97;0.80;;;;;;;;;;6206776;23;20177;-81
2024/02/12 06:56:21;;;;;;;0.90;0.70;;;;;;;;;;6234646;23;20148;-82
2024/02/12 06:58:53;;;;;;;0.70;0.60;;;;;;;;;;6259168;23;20173;-82
2024/02/12 07:01:23;;;;;;;0.70;0.60;;;;;;;;;;6258385;23;20231;-82
2024/02/12 07:03:52;;;;;;;1.50;1.27;;;;;;;;;;6259207;23;20164;-82
2024/02/12 07:06:22;;;;;;;1.10;0.70;;;;;;;;;;6258764;23;20172;-81
2024/02/12 07:08:49;;;;;;;0.80;0.70;;;;;;;;;;6258493;23;20164;-82
2024/02/12 07:11:20;;;;;;;0.80;0.80;;;;;;;;;;6258181;23;20227;-82
2024/02/12 07:13:49;;;;;;;0.60;0.60;;;;;;;;;;6258462;23;20165;-82
2024/02/12 07:16:20;;;;;;;1.33;0.70;;;;;;;;;;6258763;23;20164;-82
2024/02/12 07:18:48;;;;;;;1.17;0.80;;;;;;;;;;6258038;23;20153;-82
2024/02/12 07:21:17;;;;;;;0.83;0.80;;;;;;;;;;6259199;23;20157;-82
2024/02/12 07:23:47;;;;;;;0.70;0.70;;;;;;;;;;6208818;23;20164;-82
2024/02/12 07:26:16;;;;;;;0.50;0.50;;;;;;;;;;6259828;23;20161;-82
2024/02/12 07:28:47;;;;;;;1.10;0.80;;;;;;;;;;6232978;23;20192;-82
2024/02/12 07:31:19;;;;;;;1.10;0.80;;;;;;;;;;6251069;23;20149;-81
2024/02/12 07:33:49;;;;;;;0.77;0.67;;;;;;;;;;6233497;23;20157;-82
2024/02/12 07:36:20;;;;;;;0.60;0.60;;;;;;;;;;6234043;23;20192;-82
2024/02/12 07:38:51;;;;;;;1.87;0.60;;;;;;;;;;6260468;23;20165;-83
2024/02/12 07:41:26;;;;;;;0.70;0.60;;;;;;;;;;6261173;23;20199;-82
2024/02/12 07:43:58;;;;;;;0.77;0.70;;;;;;;;;;6260854;23;20149;-82
2024/02/12 07:46:32;;;;;;;0.70;0.60;;;;;;;;;;6260919;23;20161;-82
2024/02/12 07:48:59;;;;;;;1.90;0.90;;;;;;;;;;6234096;23;20168;-82
2024/02/12 07:51:37;;;;;;;0.70;0.67;;;;;;;;;;6260728;23;20152;-82
2024/02/12 07:54:05;;;;;;;0.60;0.50;;;;;;;;;;6228773;23;20213;-82
2024/02/12 07:56:33;;;;;;;0.70;0.60;;;;;;;;;;6229151;23;20162;-82
2024/02/12 07:59:04;;;;;;;0.70;0.63;;;;;;;;;;6227302;23;20153;-82
2024/02/12 08:01:35;;;;;;;1.80;0.63;;;;;;;;;;6181336;23;20205;-82
2024/02/12 08:04:03;;;;;;;0.70;0.60;;;;;;;;;;6197246;23;20166;-82
2024/02/12 08:06:30;;;;;;;0.50;0.50;;;;;;;;;;6197302;23;20178;-82
2024/02/12 08:09:10;;;;;;;1.10;0.57;;;;;;;;;;6197832;23;20151;-82
2024/02/12 08:11:50;;;;;;;0.80;0.43;;;;;;;;;;6197163;23;20206;-82
2024/02/12 08:14:21;;;;;;;1.03;0.40;;;;;;;;;;6198963;23;20181;-82
2024/02/12 08:16:57;;;;;;;0.40;0.40;;;;;;;;;;6199222;23;20170;-82
2024/02/12 08:19:28;;;;;;;0.73;0.40;;;;;;;;;;6224341;23;20170;-82
2024/02/12 08:22:00;;;;;;;0.50;0.40;;;;;;;;;;6231548;23;20168;-82
2024/02/12 08:24:29;;;;;;;0.63;0.40;;;;;;;;;;6231219;23;20165;-82
2024/02/12 08:27:00;;;;;;;0.63;0.33;;;;;;;;;;6231207;23;20651;-83
2024/02/12 08:29:30;;;;;;;0.40;0.30;;;;;;;;;;6206580;23;20142;-83
2024/02/12 08:32:01;;;;;;;0.40;0.30;;;;;;;;;;6230640;23;20208;-82
2024/02/12 08:34:29;;;;;;;0.30;0.30;;;;;;;;;;6232937;23;20209;-82
2024/02/12 08:37:04;;;;;;;0.80;0.37;;;;;;;;;;6232313;23;20168;-83
2024/02/12 08:39:32;;;;;;;0.30;0.20;;;;;;;;;;6231617;23;20158;-82
2024/02/12 08:42:03;;;;;;;0.40;0.30;;;;;;;;;;6231702;23;20185;-83
2024/02/12 08:44:32;;;;;;;0.20;0.20;;;;;;;;;;6232732;23;20173;-82
2024/02/12 08:47:01;;;;;;;0.30;0.30;;;;;;;;;;6206890;23;20175;-82
2024/02/12 08:49:43;;;;;;;0.20;0.20;;;;;;;;;;6232827;23;20146;-83
2024/02/12 08:52:10;;;;;;;0.60;0.30;;;;;;;;;;6229160;23;20170;-82
2024/02/12 08:54:37;;;;;;;0.53;0.30;;;;;;;;;;6232926;23;20182;-82
2024/02/12 08:57:11;;;;;;;0.30;0.30;;;;;;;;;;6233001;23;20165;-82
2024/02/12 08:59:42;;;;;;;0.63;0.30;;;;;;;;;;6207622;23;20161;-83
2024/02/12 09:02:10;;;;;;;0.43;0.40;;;;;;;;;;6234638;23;20253;-83
2024/02/12 09:04:42;;;;;;;1.37;0.30;;;;;;;;;;6263378;23;20169;-82
2024/02/12 09:07:12;;;;;;;0.30;0.30;;;;;;;;;;6265057;23;20157;-82
2024/02/12 09:09:41;;;;;;;0.77;0.30;;;;;;;;;;6266811;23;20170;-83
2024/02/12 09:12:14;;;;;;;0.43;0.23;;;;;;;;;;6266375;23;20168;-83
2024/02/12 09:14:49;;;;;;;0.43;0.30;;;;;;;;;;6240507;23;20176;-83
2024/02/12 09:17:20;;;;;;;0.93;0.50;;;;;;;;;;6239337;23;20160;-83
2024/02/12 09:19:49;;;;;;;0.77;0.20;;;;;;;;;;6265376;23;20155;-83
2024/02/12 09:22:23;;;;;;;1.33;0.50;;;;;;;;;;6215496;23;20157;-82
2024/02/12 09:24:53;;;;;;;0.77;0.23;;;;;;;;;;6266902;23;20161;-83
2024/02/12 09:27:27;;;;;;;0.30;0.30;;;;;;;;;;6266395;23;20190;-83
2024/02/12 09:30:01;;;;;;;0.50;0.20;;;;;;;;;;6265576;23;20209;-83
2024/02/12 09:32:28;;;;;;;0.20;0.20;;;;;;;;;;6254006;23;20236;-82
2024/02/12 09:34:57;;;;;;;0.60;0.20;;;;;;;;;;6240075;23;20193;-83
2024/02/12 09:37:29;;;;;;;0.53;0.30;;;;;;;;;;6240120;23;20161;-83
2024/02/12 09:39:59;;;;;;;0.20;0.20;;;;;;;;;;6241145;23;20188;-83
2024/02/12 09:42:33;;;;;;;1.13;0.23;;;;;;;;;;6267422;23;20161;-82
2024/02/12 09:45:07;;;;;;;0.37;0.20;;;;;;;;;;6266668;23;20158;-82
2024/02/12 09:47:36;;;;;;;0.40;0.30;;;;;;;;;;6267887;23;20152;-83
2024/02/12 09:50:09;;;;;;;0.20;0.20;;;;;;;;;;6239961;23;20169;-83
2024/02/12 09:52:40;;;;;;;0.20;0.20;;;;;;;;;;6239116;23;20170;-83
2024/02/12 09:55:13;;;;;;;0.50;0.20;;;;;;;;;;6265543;23;20192;-82
2024/02/12 09:57:51;;;;;;;0.30;0.30;;;;;;;;;;6267029;23;20176;-83
2024/02/12 10:00:22;;;;;;;0.57;0.33;;;;;;;;;;6266257;22;20159;-83
2024/02/12 10:03:01;;;;;;;0.50;0.30;;;;;;;;;;6267177;23;20149;-83
2024/02/12 10:05:31;;;;;;;0.40;0.30;;;;;;;;;;6266687;23;20159;-83
2024/02/12 10:08:00;;;;;;;0.93;0.40;;;;;;;;;;6240615;23;20215;-83
2024/02/12 10:10:31;;;;;;;0.30;0.20;;;;;;;;;;6266708;23;20655;-83
2024/02/12 10:12:58;;;;;;;0.30;0.13;;;;;;;;;;6232196;23;20615;-78
2024/02/12 10:15:24;;;;;;;0.30;0.30;;;;;;;;;;6247471;23;20186;-78
2024/02/12 10:17:54;;;;;;;0.57;0.30;;;;;;;;;;6248035;23;20167;-78
2024/02/12 10:20:23;;;;;;;0.20;0.20;;;;;;;;;;6220562;23;20590;-77
2024/02/12 10:22:50;;;;;;;0.27;0.20;;;;;;;;;;6247436;23;20163;-78
2024/02/12 10:25:19;;;;;;;0.40;0.40;;;;;;;;;;6247419;23;20167;-79
2024/02/12 10:27:46;;;;;;;0.63;0.30;;;;;;;;;;6247657;23;20171;-78
2024/02/12 10:30:16;;;;;;;0.27;0.27;;;;;;;;;;6247351;23;20167;-78
2024/02/12 10:32:47;;;;;;;0.33;0.30;;;;;;;;;;6247420;23;20158;-78
2024/02/12 10:35:38;;;;;;;0.30;0.23;;;;;;;;;;6247842;23;20197;-79
2024/02/12 10:38:18;;;;;;;0.30;0.30;;;;;;;;;;6247147;23;20652;-78
2024/02/12 10:41:03;;;;;;;0.80;0.20;;;;;;;;;;6246616;23;20174;-78
2024/02/12 10:43:31;;;;;;;0.43;0.30;;;;;;;;;;6246834;23;20166;-78
2024/02/12 10:46:01;;;;;;;0.43;0.30;;;;;;;;;;6247531;23;20171;-78
2024/02/12 10:48:33;;;;;;;0.30;0.30;;;;;;;;;;6247048;23;20167;-78
2024/02/12 10:51:02;;;;;;;0.20;0.20;;;;;;;;;;6247057;23;20151;-78
2024/02/12 10:53:32;;;;;;;0.20;0.20;;;;;;;;;;6247266;23;20683;-78
2024/02/12 10:56:01;;;;;;;0.53;0.20;;;;;;;;;;6246995;23;20189;-78
2024/02/12 10:58:28;;;;;;;0.40;0.40;;;;;;;;;;6247492;23;20194;-79
2024/02/12 11:00:58;;;;;;;0.30;0.20;;;;;;;;;;6246583;23;20188;-78
2024/02/12 11:03:32;;;;;;;0.60;0.30;;;;;;;;;;6247024;23;20200;-77
2024/02/12 11:06:00;;;;;;;0.53;0.30;;;;;;;;;;6246959;23;20613;-78
2024/02/12 11:08:34;;;;;;;0.30;0.30;;;;;;;;;;6247359;23;20158;-78
2024/02/12 11:11:03;;;;;;;0.40;0.40;;;;;;;;;;6247087;23;20194;-78
2024/02/12 11:13:35;;;;;;;0.30;0.30;;;;;;;;;;6246991;23;20246;-78
2024/02/12 11:16:12;;;;;;;0.43;0.30;;;;;;;;;;6246875;23;20244;-78
2024/02/12 11:18:38;;;;;;;0.30;0.23;;;;;;;;;;6246972;23;20161;-78
2024/02/12 11:21:09;;;;;;;0.20;0.20;;;;;;;;;;6246689;23;20211;-78
2024/02/12 11:23:40;;;;;;;1.83;0.40;;;;;;;;;;6246599;23;20164;-78
2024/02/12 11:26:07;;;;;;;0.30;0.30;;;;;;;;;;6246246;23;20187;-78
2024/02/12 11:28:38;;;;;;;0.30;0.30;;;;;;;;;;6246925;23;20167;-78
2024/02/12 11:31:13;;;;;;;0.70;0.70;;;;;;;;;;6246333;23;20206;-77
2024/02/12 11:33:42;;;;;;;1.23;0.87;;;;;;;;;;6247293;23;20205;-78
2024/02/12 11:36:10;;;;;;;0.30;0.30;;;;;;;;;;6246417;23;20192;-78
2024/02/12 11:38:48;;;;;;;0.53;0.40;;;;;;;;;;6246536;23;20232;-77
2024/02/12 11:41:15;;;;;;;0.50;0.30;;;;;;;;;;6246601;23;20153;-78
2024/02/12 11:43:42;;;;;;;0.87;0.30;;;;;;;;;;6246474;23;20602;-78
2024/02/12 11:46:21;;;;;;;0.20;0.20;;;;;;;;;;6246557;23;20170;-78
2024/02/12 11:49:00;;;;;;;0.37;0.23;;;;;;;;;;6246309;23;20542;-77
2024/02/12 11:51:28;;;;;;;0.57;0.30;;;;;;;;;;6246881;23;20205;-78
2024/02/12 11:54:00;;;;;;;0.40;0.40;;;;;;;;;;6247312;23;20201;-79
2024/02/12 11:56:32;;;;;;;1.23;0.40;;;;;;;;;;6246389;23;20198;-78
2024/02/12 11:58:59;;;;;;;1.13;0.30;;;;;;;;;;6246482;23;20495;-78
2024/02/12 12:01:35;;;;;;;0.40;0.40;;;;;;;;;;6246500;23;20241;-78
2024/02/12 12:04:02;;;;;;;0.50;0.30;;;;;;;;;;6246895;23;20185;-78
2024/02/12 12:06:34;;;;;;;0.23;0.20;;;;;;;;;;6246569;23;20619;-78
2024/02/12 12:09:08;;;;;;;0.97;0.40;;;;;;;;;;6246606;23;20151;-78
2024/02/12 12:11:39;;;;;;;0.30;0.30;;;;;;;;;;6244419;23;20168;-78
2024/02/12 12:14:06;;;;;;;0.30;0.30;;;;;;;;;;6246193;23;20220;-78
2024/02/12 12:16:35;;;;;;;0.20;0.20;;;;;;;;;;6246402;23;20181;-78
2024/02/12 12:19:05;;;;;;;0.30;0.30;;;;;;;;;;6246556;23;20223;-78
2024/02/12 12:21:34;;;;;;;0.40;0.40;;;;;;;;;;6246483;23;20186;-78
2024/02/12 12:24:03;;;;;;;0.40;0.40;;;;;;;;;;6246203;23;20597;-78
2024/02/12 12:26:35;;;;;;;0.53;0.40;;;;;;;;;;6246459;23;20161;-77
2024/02/12 12:29:03;;;;;;;0.50;0.30;;;;;;;;;;6246179;23;20246;-78
2024/02/12 12:31:31;;;;;;;0.40;0.40;;;;;;;;;;6245944;23;20167;-78
2024/02/12 12:34:00;;;;;;;0.97;0.47;;;;;;;;;;6246750;23;20165;-78
2024/02/12 12:36:26;;;;;;;1.17;0.43;;;;;;;;;;6245957;23;20640;-78
2024/02/12 12:39:05;;;;;;;0.70;0.43;;;;;;;;;;6246488;23;20151;-79
2024/02/12 12:41:33;;;;;;;0.37;0.37;;;;;;;;;;6246576;23;20695;-78
2024/02/12 12:44:10;;;;;;;0.57;0.40;;;;;;;;;;6246278;23;20302;-78
2024/02/12 12:46:37;;;;;;;0.30;0.30;;;;;;;;;;6246423;23;20167;-78
2024/02/12 12:49:13;;;;;;;0.40;0.40;;;;;;;;;;6246143;23;20159;-77
2024/02/12 12:51:44;;;;;;;0.33;0.30;;;;;;;;;;6246561;23;20174;-78
2024/02/12 12:54:11;;;;;;;0.30;0.30;;;;;;;;;;6245851;23;20218;-78
2024/02/12 12:56:38;;;;;;;0.30;0.30;;;;;;;;;;6245916;23;20210;-78
2024/02/12 12:59:05;;;;;;;0.50;0.40;;;;;;;;;;6246294;23;20211;-78
2024/02/12 13:01:34;;;;;;;0.67;0.30;;;;;;;;;;6256438;23;20191;-83
2024/02/12 13:04:04;;;;;;;0.40;0.40;;;;;;;;;;6237335;23;20180;-83
2024/02/12 13:06:32;;;;;;;0.40;0.40;;;;;;;;;;6236556;23;20168;-83
2024/02/12 13:09:02;;;;;;;0.43;0.40;;;;;;;;;;6263482;23;20170;-82
2024/02/12 13:11:33;;;;;;;0.83;0.40;;;;;;;;;;6214280;23;20160;-83
2024/02/12 13:14:10;;;;;;;0.30;0.30;;;;;;;;;;6264258;23;20170;-82
2024/02/12 13:16:49;;;;;;;;;;;;;;;;;;;;;
2024/02/12 13:19:28;;;;;;;0.47;0.40;;;;;;;;;;6239136;23;20183;-82
2024/02/12 13:22:21;;;;;;;0.40;0.40;;;;;;;;;;6264432;23;20171;-83
2024/02/12 13:25:15;;;;;;;0.30;0.30;;;;;;;;;;6263305;23;20141;-83
2024/02/12 13:27:53;;;;;;;0.30;0.30;;;;;;;;;;6264642;23;20147;-83
2024/02/12 13:30:23;;;;;;;1.23;0.40;;;;;;;;;;6264348;23;20212;-84
2024/02/12 13:32:52;;;;;;;0.70;0.50;;;;;;;;;;6238875;23;20175;-82
2024/02/12 13:35:37;;;;;;;0.57;0.50;;;;;;;;;;6237837;23;20167;-83
2024/02/12 13:38:20;;;;;;;0.83;0.50;;;;;;;;;;6264329;23;20161;-83
2024/02/12 13:40:50;;;;;;;1.20;0.50;;;;;;;;;;6264316;22;20161;-83
2024/02/12 13:43:24;;;;;;;0.73;0.50;;;;;;;;;;6236891;23;20163;-82
2024/02/12 13:45:54;;;;;;;0.40;0.40;;;;;;;;;;6262927;23;20257;-82
2024/02/12 13:48:26;;;;;;;1.13;0.60;;;;;;;;;;6264346;23;20148;-83
2024/02/12 13:50:58;;;;;;;1.93;0.90;;;;;;;;;;6263133;23;20171;-83
2024/02/12 13:53:26;;;;;;;3.00;0.93;;;;;;;;;;6264905;23;20175;-82
2024/02/12 13:56:00;;;;;;;1.33;0.50;;;;;;;;;;6266327;23;20166;-83
2024/02/12 13:58:36;;;;;;;0.80;0.43;;;;;;;;;;6266809;23;20147;-83
2024/02/12 14:01:03;;;;;;;0.60;0.40;;;;;;;;;;6265922;22;20210;-83
2024/02/12 14:03:53;;;;;;;0.40;0.40;;;;;;;;;;6266239;23;20156;-83
2024/02/12 14:06:21;;;;;;;0.80;0.50;;;;;;;;;;6240273;23;20168;-83
2024/02/12 14:08:56;;;;;;;0.63;0.57;;;;;;;;;;6267220;23;20165;-83
2024/02/12 14:11:33;;;;;;;2.10;0.50;;;;;;;;;;6266617;23;20577;-83
2024/02/12 14:14:04;;;;;;;0.40;0.40;;;;;;;;;;6267083;23;20162;-82
2024/02/12 14:16:33;;;;;;;0.73;0.40;;;;;;;;;;6239532;23;20213;-83
2024/02/12 14:19:00;;;;;;;0.40;0.40;;;;;;;;;;6239547;23;20233;-83
2024/02/12 14:21:30;;;;;;;0.63;0.43;;;;;;;;;;6239409;23;20167;-83
2024/02/12 14:24:23;;;;;;;0.57;0.40;;;;;;;;;;6241113;23;20211;-83
2024/02/12 14:27:40;;;;;;;0.40;0.40;;;;;;;;;;6266380;23;20149;-83
2024/02/12 14:30:17;;;;;;;0.20;0.20;;;;;;;;;;6266713;23;20165;-83
2024/02/12 14:32:45;;;;;;;1.23;0.43;;;;;;;;;;6238756;23;20241;-83
2024/02/12 14:35:17;;;;;;;0.60;0.40;;;;;;;;;;6238729;23;20170;-83
2024/02/12 14:37:45;;;;;;;0.60;0.60;;;;;;;;;;6265305;23;20171;-83
2024/02/12 14:40:14;;;;;;;0.40;0.40;;;;;;;;;;6265182;23;20166;-83
2024/02/12 14:42:59;;;;;;;0.77;0.77;;;;;;;;;;6239302;23;20159;-83
2024/02/12 14:45:33;;;;;;;0.50;0.50;;;;;;;;;;6266825;23;20166;-83
2024/02/12 14:48:04;;;;;;;0.60;0.60;;;;;;;;;;6266375;23;20160;-82
2024/02/12 14:50:39;;;;;;;0.63;0.60;;;;;;;;;;6239826;23;20187;-83
2024/02/12 14:53:21;;;;;;;0.50;0.50;;;;;;;;;;6239144;23;20229;-83
2024/02/12 14:55:58;;;;;;;1.43;0.60;;;;;;;;;;6240013;23;20143;-82
2024/02/12 14:58:30;;;;;;;0.80;0.40;;;;;;;;;;6265996;23;20150;-83
2024/02/12 15:03:53;;;;;;;0.80;0.50;;;;;;;;;;6245884;23;20149;-83
2024/02/12 15:06:23;;;;;;;3.53;0.60;;;;;;;;;;6239067;23;20166;-82
2024/02/12 15:08:56;;;;;;;0.70;0.60;;;;;;;;;;6267005;23;20155;-83
2024/02/12 15:11:27;;;;;;;0.40;0.40;;;;;;;;;;6240036;23;20150;-83
2024/02/12 15:13:55;;;;;;;1.10;0.50;;;;;;;;;;6264121;23;20185;-82
2024/02/12 15:16:32;;;;;;;0.40;0.40;;;;;;;;;;6265225;23;20246;-83
2024/02/12 15:19:07;;;;;;;0.73;0.57;;;;;;;;;;6216169;23;20162;-82
2024/02/12 15:21:37;;;;;;;1.13;0.60;;;;;;;;;;6265046;23;20155;-83
2024/02/12 15:24:04;;;;;;;0.40;0.40;;;;;;;;;;6265991;23;20229;-83
2024/02/12 15:26:32;;;;;;;0.40;0.40;;;;;;;;;;6264903;23;20157;-82